Paradise Hill, Canada
Current Conditions -  °F | °C
As of 3:00 AM on Friday 24 Oct 2014 (Local Time) from CYLL Reporting Station
Scattered Clouds Scattered Clouds  
Wind Chill: 30°   Ceiling: Unl
Heat Index: 37°   Visibility: 9mi
Dew Point: 30°   Wind: 12mph
Humidity: 75%   Direction: 280°W
Pressure: 29.57"   Gusts: 17mph
Location:  53.53°N, 109.45°W
Report Text: CYLL 240900Z AUTO 28010G15KT 9SM SCT200 03/M01 A2957 RMK SLP025
Loading
Personal Weather Stations






























Interactive Weather Map
Tropical Storm Tracking
New forecast layout! Learn more

10-Day Weather Forecast

Advertisements
Track Severe Weather on mobile